Time;durP1;ratioP1;P1;durP2;ratioP2;P2;SDS_P1;SDS_P2;PMS_P1;PMS_P2;Temp;Humidity;BMP_temperature;BMP_pressure;BME280_temperature;BME280_humidity;BME280_pressure;Samples;Min_cycle;Max_cycle;Signal;HPM_P1;HPM_P2
2021/11/15 00:02:19;;;;;;;32.90;19.50;;;;;;;7.42;74.92;102002.66;5012635;28;20018;-44
2021/11/15 00:04:44;;;;;;;40.20;21.55;;;;;;;7.44;75.03;102011.47;5011699;28;20056;-42
2021/11/15 00:07:09;;;;;;;37.53;19.65;;;;;;;7.44;74.84;102006.22;5004794;28;20514;-43
2021/11/15 00:09:35;;;;;;;38.28;20.70;;;;;;;7.44;74.50;102003.59;4994850;28;20422;-43
2021/11/15 00:12:01;;;;;;;39.13;21.67;;;;;;;7.40;74.64;101994.72;5003105;28;20058;-43
2021/11/15 00:14:27;;;;;;;38.03;20.40;;;;;;;7.42;74.81;101998.28;4995407;28;20402;-43
2021/11/15 00:16:52;;;;;;;40.72;20.13;;;;;;;7.44;74.78;101998.34;4996914;28;20040;-42
2021/11/15 00:19:17;;;;;;;44.72;20.05;;;;;;;7.43;74.66;101999.16;4994132;28;20039;-44
2021/11/15 00:21:43;;;;;;;40.22;22.92;;;;;;;7.42;74.88;101997.41;4993383;28;20386;-43
2021/11/15 00:24:08;;;;;;;46.80;21.27;;;;;;;7.42;74.66;101992.16;5027871;28;20038;-42
2021/11/15 00:26:33;;;;;;;38.55;21.70;;;;;;;7.42;74.91;101986.91;5003670;28;20394;-43
2021/11/15 00:28:59;;;;;;;40.65;21.50;;;;;;;7.42;74.95;101998.28;5006622;28;20031;-44
2021/11/15 00:31:30;;;;;;;43.80;23.25;;;;;;;7.44;74.87;101995.72;5005396;28;20116;-42
2021/11/15 00:33:56;;;;;;;40.47;20.88;;;;;;;7.41;74.90;101996.50;5001318;28;20475;-42
2021/11/15 00:36:22;;;;;;;46.13;22.55;;;;;;;7.43;74.67;102001.78;5002597;28;20036;-45
2021/11/15 00:38:47;;;;;;;44.90;22.10;;;;;;;7.42;75.04;101998.28;5011059;28;20403;-43
2021/11/15 00:41:13;;;;;;;41.10;23.77;;;;;;;7.42;74.69;101997.41;5010653;28;20065;-42
2021/11/15 00:43:38;;;;;;;39.63;22.35;;;;;;;7.41;74.71;102000.88;5008576;28;20394;-42
2021/11/15 00:46:04;;;;;;;43.00;21.95;;;;;;;7.42;74.63;101998.28;5001729;28;20048;-44
2021/11/15 00:48:29;;;;;;;41.67;22.38;;;;;;;7.41;74.84;101996.50;4998698;28;20022;-43
2021/11/15 00:50:55;;;;;;;40.53;22.42;;;;;;;7.41;74.77;102001.75;5007547;28;20565;-42
2021/11/15 00:53:23;;;;;;;44.90;23.95;;;;;;;7.43;75.00;102001.78;5003070;28;20368;-43
2021/11/15 00:55:51;;;;;;;43.40;21.65;;;;;;;7.42;74.70;102002.66;5000604;28;20061;-42
2021/11/15 00:58:17;;;;;;;49.85;23.48;;;;;;;7.42;74.82;101997.41;5000794;28;20030;-43
2021/11/15 01:00:43;;;;;;;44.38;23.42;;;;;;;7.41;74.66;102007.00;5004113;28;20037;-44
2021/11/15 01:03:10;;;;;;;40.40;23.17;;;;;;;7.40;75.02;102001.75;4994879;28;20829;-44
2021/11/15 01:05:38;;;;;;;46.05;24.45;;;;;;;7.43;74.66;102007.03;4996574;28;20017;-43
2021/11/15 01:08:04;;;;;;;43.05;22.88;;;;;;;7.40;74.91;102005.22;5008313;28;20080;-44
2021/11/15 01:10:29;;;;;;;39.83;21.80;;;;;;;7.41;74.96;102004.38;5011376;28;20033;-44
2021/11/15 01:12:55;;;;;;;43.30;23.10;;;;;;;7.41;74.63;102001.75;5023441;28;20033;-43
2021/11/15 01:15:22;;;;;;;45.10;23.65;;;;;;;7.41;74.83;101999.13;5004968;28;20541;-42
2021/11/15 01:17:49;;;;;;;41.80;23.75;;;;;;;7.43;75.03;102004.41;5004653;28;20029;-43
2021/11/15 01:20:16;;;;;;;41.10;23.88;;;;;;;7.40;74.59;101994.72;4997388;28;20030;-42
2021/11/15 01:22:42;;;;;;;46.10;23.95;;;;;;;7.42;74.76;101997.41;4995855;28;20026;-43
2021/11/15 01:25:08;;;;;;;41.30;23.50;;;;;;;7.41;74.86;101993.00;4993052;28;20506;-44
2021/11/15 01:27:34;;;;;;;43.17;22.48;;;;;;;7.43;74.94;101999.16;4992661;28;20127;-44
2021/11/15 01:29:59;;;;;;;39.53;22.60;;;;;;;7.41;74.71;101995.63;5001483;28;20092;-42
2021/11/15 01:32:25;;;;;;;44.90;24.38;;;;;;;7.41;74.62;102003.50;5010300;28;20037;-44
2021/11/15 01:34:51;;;;;;;42.50;22.45;;;;;;;7.41;74.63;101999.13;5010270;28;20449;-42
2021/11/15 01:37:20;;;;;;;44.13;24.67;;;;;;;7.41;74.71;102001.75;5011478;28;20061;-42
2021/11/15 01:39:45;;;;;;;44.08;25.20;;;;;;;7.41;74.64;102008.75;5010112;28;20044;-42
2021/11/15 01:42:10;;;;;;;38.85;22.60;;;;;;;7.39;74.98;102002.56;5005046;28;20026;-42
2021/11/15 01:44:36;;;;;;;48.92;25.02;;;;;;;7.39;74.75;102003.47;5006160;28;20030;-43
2021/11/15 01:47:02;;;;;;;43.22;23.98;;;;;;;7.41;74.73;102001.75;5008060;28;20033;-42
2021/11/15 01:49:28;;;;;;;38.67;23.95;;;;;;;7.40;74.93;102004.38;5000877;28;20052;-43
2021/11/15 01:51:53;;;;;;;41.58;23.80;;;;;;;7.40;74.98;102002.59;4974964;28;20038;-43
2021/11/15 01:54:19;;;;;;;44.53;24.23;;;;;;;7.40;74.66;101999.97;5010019;28;20030;-42
2021/11/15 01:56:50;;;;;;;44.75;23.52;;;;;;;7.39;74.78;101992.06;5008093;28;20034;-43
2021/11/15 01:59:15;;;;;;;46.40;23.83;;;;;;;7.39;74.70;101997.31;5003455;28;20029;-43
2021/11/15 02:01:40;;;;;;;44.63;24.73;;;;;;;7.39;74.55;101999.94;4993592;28;20036;-42
2021/11/15 02:04:06;;;;;;;42.13;24.52;;;;;;;7.40;74.63;102001.75;5004066;28;20033;-42
2021/11/15 02:06:31;;;;;;;41.50;24.00;;;;;;;7.38;74.68;101996.44;5008141;28;20026;-43
2021/11/15 02:08:57;;;;;;;43.05;24.58;;;;;;;7.40;74.78;101994.72;5002148;28;20096;-42
2021/11/15 02:11:22;;;;;;;48.35;25.13;;;;;;;7.39;74.91;101986.81;4997701;28;20038;-43
2021/11/15 02:13:51;;;;;;;42.38;24.02;;;;;;;7.39;74.68;101986.81;4996112;28;20030;-42
2021/11/15 02:16:16;;;;;;;48.90;23.98;;;;;;;7.38;74.64;101990.28;5003873;28;20026;-42
2021/11/15 02:18:44;;;;;;;42.40;23.40;;;;;;;7.37;74.94;101991.16;4999844;28;20022;-43
2021/11/15 02:21:13;;;;;;;37.75;23.30;;;;;;;7.39;74.53;101985.09;5001511;28;20506;-42
2021/11/15 02:23:42;;;;;;;48.47;23.95;;;;;;;7.38;74.54;101979.78;4999282;28;20053;-43
2021/11/15 02:26:09;;;;;;;46.72;25.35;;;;;;;7.38;74.71;101980.69;5010620;28;20029;-42
2021/11/15 02:28:39;;;;;;;44.28;23.77;;;;;;;7.38;74.75;101977.16;5012763;28;20029;-43
2021/11/15 02:31:09;;;;;;;37.53;24.00;;;;;;;7.37;74.54;101976.28;5003679;28;20033;-43
2021/11/15 02:33:47;;;;;;;44.05;25.58;;;;;;;7.37;74.69;101986.78;5011014;28;20378;-42
2021/11/15 02:36:12;;;;;;;44.28;26.25;;;;;;;7.38;74.78;101979.78;5006505;28;20022;-44
2021/11/15 02:38:38;;;;;;;46.33;24.15;;;;;;;7.39;74.75;101976.31;5006681;28;20406;-42
2021/11/15 02:41:04;;;;;;;43.22;24.98;;;;;;;7.39;74.75;101981.56;5001908;28;20027;-42
2021/11/15 02:43:29;;;;;;;43.42;23.08;;;;;;;7.38;74.55;101979.78;5011382;28;20022;-43
2021/11/15 02:45:55;;;;;;;42.08;24.40;;;;;;;7.38;74.61;101974.53;5013785;28;20026;-44
2021/11/15 02:48:22;;;;;;;39.85;24.05;;;;;;;7.37;74.88;101978.91;5014558;28;20383;-42
2021/11/15 02:50:48;;;;;;;42.28;23.80;;;;;;;7.37;74.74;101978.91;4997126;28;20487;-43
2021/11/15 02:53:17;;;;;;;45.45;23.83;;;;;;;7.38;74.80;101979.78;5011142;28;20033;-42
2021/11/15 02:55:46;;;;;;;51.88;27.63;;;;;;;7.38;74.89;101990.28;5013115;28;20402;-42
2021/11/15 02:58:12;;;;;;;41.70;23.65;;;;;;;7.38;74.88;101985.03;5008392;28;20117;-44
2021/11/15 03:00:50;;;;;;;45.97;24.10;;;;;;;7.37;74.71;101978.91;5009524;28;20054;-43
2021/11/15 03:03:17;;;;;;;46.55;24.95;;;;;;;7.37;74.54;101980.66;5005300;28;20060;-43
2021/11/15 03:05:46;;;;;;;41.53;24.63;;;;;;;7.37;74.70;101985.91;5010667;28;20033;-43
2021/11/15 03:08:12;;;;;;;41.05;23.13;;;;;;;7.36;74.75;101982.38;5010057;28;20032;-42
2021/11/15 03:10:40;;;;;;;46.55;26.02;;;;;;;7.36;74.90;101982.38;5004862;28;20058;-43
2021/11/15 03:13:25;;;;;;;48.22;26.35;;;;;;;7.37;74.55;101980.66;4994347;28;20053;-45
2021/11/15 03:15:58;;;;;;;48.72;25.50;;;;;;;7.36;74.86;101978.84;5022701;28;20378;-43
2021/11/15 03:18:32;;;;;;;43.78;25.45;;;;;;;7.38;74.56;101985.03;5018874;28;20433;-42
2021/11/15 03:21:01;;;;;;;41.30;25.67;;;;;;;7.37;74.59;101978.03;5011250;28;20025;-42
2021/11/15 03:23:29;;;;;;;45.30;26.88;;;;;;;7.36;74.42;101976.22;5000843;28;20073;-43
2021/11/15 03:25:56;;;;;;;48.50;27.05;;;;;;;7.36;74.38;101976.22;5007166;28;20026;-43
2021/11/15 03:28:24;;;;;;;44.95;27.30;;;;;;;7.35;74.87;101974.47;5007222;28;20026;-43
2021/11/15 03:31:07;;;;;;;48.95;26.48;;;;;;;7.35;74.80;101974.47;5011012;28;20018;-43
2021/11/15 03:33:34;;;;;;;43.22;25.67;;;;;;;7.35;74.46;101971.84;5008650;28;20026;-43
2021/11/15 03:35:59;;;;;;;48.05;27.15;;;;;;;7.35;74.71;101969.22;4994188;28;20038;-42
2021/11/15 03:38:25;;;;;;;47.70;27.35;;;;;;;7.35;74.65;101969.22;4994170;28;20030;-44
2021/11/15 03:40:50;;;;;;;45.60;26.80;;;;;;;7.35;74.61;101969.22;4998661;28;20025;-42
2021/11/15 03:43:16;;;;;;;47.53;26.35;;;;;;;7.35;74.48;101963.97;4993607;28;20037;-43
2021/11/15 03:45:42;;;;;;;42.60;27.50;;;;;;;7.34;74.52;101967.44;4995926;28;20026;-43
2021/11/15 03:48:09;;;;;;;44.78;26.27;;;;;;;7.35;74.50;101966.59;5003374;28;20073;-44
2021/11/15 03:50:41;;;;;;;48.97;28.05;;;;;;;7.34;74.65;101959.56;5010505;28;20105;-43
2021/11/15 03:53:09;;;;;;;48.08;27.10;;;;;;;7.35;74.90;101961.34;5010658;28;20033;-43
2021/11/15 03:55:35;;;;;;;48.67;28.27;;;;;;;7.34;74.59;101960.47;5011333;28;20025;-43
2021/11/15 03:58:04;;;;;;;48.42;27.02;;;;;;;7.35;74.63;101963.97;5002181;28;20030;-42
2021/11/15 04:00:36;;;;;;;48.58;26.88;;;;;;;7.34;74.51;101964.81;4998724;28;20030;-43
2021/11/15 04:03:04;;;;;;;48.05;26.48;;;;;;;7.35;74.74;101961.34;4997960;28;20029;-42
2021/11/15 04:05:38;;;;;;;40.15;24.25;;;;;;;7.33;74.73;101956.06;5003586;28;20034;-42
2021/11/15 04:08:05;;;;;;;46.38;28.45;;;;;;;7.33;74.67;101953.44;5031139;28;20061;-42
2021/11/15 04:10:40;;;;;;;50.00;29.13;;;;;;;7.34;74.65;101956.94;5009317;28;21859;-42
2021/11/15 04:13:41;;;;;;;48.97;28.92;;;;;;;7.34;74.47;101942.09;5009243;28;20057;-43
2021/11/15 04:16:11;;;;;;;46.70;27.25;;;;;;;7.32;74.54;101949.94;4976453;28;20501;-44
2021/11/15 04:18:40;;;;;;;52.20;28.90;;;;;;;7.32;74.49;101944.69;5004374;28;20056;-43
2021/11/15 04:21:07;;;;;;;48.65;27.52;;;;;;;7.32;74.64;101949.03;4998256;28;20513;-42
2021/11/15 04:23:33;;;;;;;49.85;25.90;;;;;;;7.32;74.45;101947.31;5012612;28;20014;-43
2021/11/15 04:25:58;;;;;;;44.47;27.40;;;;;;;7.34;74.76;101951.69;5005281;28;20117;-42
2021/11/15 04:28:24;;;;;;;53.50;28.13;;;;;;;7.34;74.78;101941.19;5011053;28;20525;-43
2021/11/15 04:30:49;;;;;;;47.35;27.25;;;;;;;7.31;74.70;101942.88;5000178;28;20038;-43
2021/11/15 04:33:15;;;;;;;44.85;27.67;;;;;;;7.32;74.55;101944.69;4998585;28;20482;-43
2021/11/15 04:35:43;;;;;;;46.28;28.88;;;;;;;7.33;74.53;101942.94;5004069;28;20026;-42
2021/11/15 04:38:09;;;;;;;48.92;30.50;;;;;;;7.32;74.73;101934.19;5009739;28;20545;-42
2021/11/15 04:40:35;;;;;;;45.45;27.92;;;;;;;7.32;74.45;101939.44;5007599;28;20087;-43
2021/11/15 04:43:04;;;;;;;49.63;28.35;;;;;;;7.31;74.54;101937.63;5010531;28;20049;-42
2021/11/15 04:45:32;;;;;;;51.83;27.52;;;;;;;7.31;74.54;101940.25;4994067;28;20037;-42
2021/11/15 04:47:57;;;;;;;50.70;26.92;;;;;;;7.31;74.57;101942.03;4994681;28;20023;-43
2021/11/15 04:50:23;;;;;;;50.15;29.25;;;;;;;7.30;74.48;101937.59;4998796;28;20026;-44
2021/11/15 04:52:51;;;;;;;50.55;29.33;;;;;;;7.32;74.46;101939.44;4992243;28;20546;-43
2021/11/15 04:55:18;;;;;;;48.47;28.20;;;;;;;7.31;74.61;101942.88;5007873;28;20034;-42
2021/11/15 04:57:44;;;;;;;47.55;26.38;;;;;;;7.31;74.38;101931.53;4992618;28;20042;-42
2021/11/15 05:00:18;;;;;;;45.67;27.40;;;;;;;7.32;74.51;101928.94;5004486;28;20045;-42
2021/11/15 05:02:44;;;;;;;46.15;26.70;;;;;;;7.31;74.56;101942.03;5003901;28;20474;-42
2021/11/15 05:05:10;;;;;;;48.08;26.75;;;;;;;7.31;74.60;101934.16;5000821;28;20117;-42
2021/11/15 05:07:35;;;;;;;47.92;28.50;;;;;;;7.30;74.55;101930.63;5004675;28;20539;-42
2021/11/15 05:10:00;;;;;;;54.40;28.35;;;;;;;7.29;74.61;101923.59;4996555;28;20033;-45
2021/11/15 05:12:34;;;;;;;49.47;27.90;;;;;;;7.29;74.50;101923.59;4994929;28;20033;-42
2021/11/15 05:14:59;;;;;;;52.22;27.38;;;;;;;7.30;74.73;101930.63;4999901;28;20053;-43
2021/11/15 05:17:25;;;;;;;50.05;27.40;;;;;;;7.30;74.56;101935.88;4995678;28;20426;-44
2021/11/15 05:19:53;;;;;;;50.33;27.13;;;;;;;7.30;74.72;101932.34;4998370;28;20037;-44
2021/11/15 05:22:18;;;;;;;52.58;27.75;;;;;;;7.29;74.67;101928.84;5001130;28;20122;-42
2021/11/15 05:24:47;;;;;;;47.85;28.15;;;;;;;7.31;74.48;101937.63;5001710;28;20105;-43
2021/11/15 05:27:12;;;;;;;52.13;29.33;;;;;;;7.31;74.62;101936.78;5007290;28;20060;-43
2021/11/15 05:29:37;;;;;;;52.72;28.52;;;;;;;7.29;74.36;101936.72;5000282;28;20474;-44
2021/11/15 05:32:03;;;;;;;49.45;27.35;;;;;;;7.30;74.48;101941.13;5001279;28;20030;-44
2021/11/15 05:34:28;;;;;;;52.70;29.25;;;;;;;7.28;74.31;101932.34;5006412;28;20112;-43
2021/11/15 05:36:53;;;;;;;52.28;29.42;;;;;;;7.29;74.54;101934.09;4996631;28;20498;-44
2021/11/15 05:39:22;;;;;;;54.20;27.80;;;;;;;7.27;74.42;101933.16;5001297;28;20027;-43
2021/11/15 05:41:48;;;;;;;50.65;28.65;;;;;;;7.28;74.56;101932.34;5002349;28;20033;-43
2021/11/15 05:44:13;;;;;;;45.15;26.52;;;;;;;7.29;74.58;101941.06;4997911;28;20541;-43
2021/11/15 05:46:39;;;;;;;47.53;27.55;;;;;;;7.28;74.35;101942.84;5001868;28;20038;-43
2021/11/15 05:49:04;;;;;;;51.97;29.63;;;;;;;7.28;74.55;101940.22;5004532;28;20065;-42
2021/11/15 05:51:30;;;;;;;48.85;26.70;;;;;;;7.28;74.43;101942.84;5002502;28;20390;-44
2021/11/15 05:53:58;;;;;;;55.58;29.13;;;;;;;7.28;74.50;101953.34;5008476;28;20030;-42
2021/11/15 05:56:25;;;;;;;49.40;28.67;;;;;;;7.29;74.70;101952.47;4999435;28;20045;-43
2021/11/15 05:58:50;;;;;;;54.33;29.83;;;;;;;7.28;74.60;101953.34;5002782;28;20528;-43
2021/11/15 06:01:15;;;;;;;51.97;29.42;;;;;;;7.26;74.55;101948.88;4992493;28;20035;-45
2021/11/15 06:03:41;;;;;;;53.03;28.02;;;;;;;7.27;74.55;101956.78;5002745;28;20069;-44
2021/11/15 06:06:06;;;;;;;52.53;28.58;;;;;;;7.26;74.36;101955.00;5003353;28;20057;-44
2021/11/15 06:08:31;;;;;;;53.90;30.17;;;;;;;7.27;74.66;101959.41;5003864;28;20095;-44
2021/11/15 06:10:59;;;;;;;50.95;29.00;;;;;;;7.26;74.46;101960.25;5002477;28;20401;-45
2021/11/15 06:13:25;;;;;;;49.55;28.92;;;;;;;7.26;74.25;101965.50;5002038;28;20045;-46
2021/11/15 06:15:50;;;;;;;55.17;29.73;;;;;;;7.27;74.75;101969.03;5004414;28;20419;-44
2021/11/15 06:18:16;;;;;;;60.13;29.55;;;;;;;7.26;74.47;101970.75;5004343;28;20021;-45
2021/11/15 06:20:42;;;;;;;61.83;31.30;;;;;;;7.26;74.29;101976.00;5006358;28;20026;-46
2021/11/15 06:23:07;;;;;;;49.70;27.92;;;;;;;7.26;74.61;101976.00;4994095;28;20391;-45
2021/11/15 06:25:34;;;;;;;52.60;29.77;;;;;;;7.25;74.69;101971.63;5010522;28;20032;-45
2021/11/15 06:28:00;;;;;;;53.40;27.83;;;;;;;7.27;74.62;101971.66;5014429;28;20026;-46
2021/11/15 06:30:31;;;;;;;53.92;29.15;;;;;;;7.25;74.60;101962.84;5009679;28;20031;-44
2021/11/15 06:32:56;;;;;;;;;;;;;;;7.22;74.35;101974.16;5002024;28;20486;-44
2021/11/15 06:35:22;;;;;;;51.63;27.83;;;;;;;7.23;74.63;101959.31;4998709;28;19914;-44
2021/11/15 06:37:47;;;;;;;53.55;30.08;;;;;;;7.24;74.45;101967.19;4991018;28;20030;-44
2021/11/15 06:40:14;;;;;;;56.25;29.10;;;;;;;7.24;74.49;101967.19;4994330;28;20018;-44
2021/11/15 06:42:40;;;;;;;56.05;31.13;;;;;;;7.24;74.59;101966.31;5002230;28;20030;-45
2021/11/15 06:45:06;;;;;;;57.00;31.55;;;;;;;7.24;74.52;101968.94;5002972;28;20841;-43
2021/11/15 06:47:35;;;;;;;54.33;30.75;;;;;;;7.23;74.48;101970.69;5000334;28;20034;-43
2021/11/15 06:50:02;;;;;;;51.72;28.90;;;;;;;7.25;74.73;101970.72;5008791;28;20037;-44
2021/11/15 06:52:28;;;;;;;55.08;30.17;;;;;;;7.25;74.53;101975.97;5000912;28;20030;-44
2021/11/15 06:54:53;;;;;;;57.78;30.45;;;;;;;7.24;74.53;101975.06;5017307;28;20033;-44
2021/11/15 06:57:18;;;;;;;56.65;29.95;;;;;;;7.24;74.82;101972.44;5003905;28;20049;-43
2021/11/15 06:59:47;;;;;;;55.15;31.75;;;;;;;7.23;74.66;101965.44;5003500;28;20168;-44
2021/11/15 07:02:12;;;;;;;55.88;30.08;;;;;;;7.24;74.44;101972.44;5009151;28;20024;-44
2021/11/15 07:04:37;;;;;;;53.40;29.08;;;;;;;7.23;74.35;101970.69;5012266;28;20026;-44
2021/11/15 07:07:03;;;;;;;54.05;30.80;;;;;;;7.22;74.29;101963.66;4997359;28;20034;-43
2021/11/15 07:09:29;;;;;;;57.25;29.15;;;;;;;7.23;74.28;101970.69;5011259;28;20387;-44
2021/11/15 07:11:54;;;;;;;53.65;29.35;;;;;;;7.24;74.67;101971.56;5007614;28;20029;-44
2021/11/15 07:14:23;;;;;;;58.40;30.17;;;;;;;7.23;74.40;101969.81;5004753;28;20030;-44
2021/11/15 07:16:48;;;;;;;55.38;29.40;;;;;;;7.22;74.62;101973.25;4998514;28;20018;-44
2021/11/15 07:19:21;;;;;;;58.78;32.03;;;;;;;7.21;74.33;101974.13;5004201;28;20042;-45
2021/11/15 07:21:46;;;;;;;56.92;30.90;;;;;;;7.21;74.25;101977.63;5007200;28;20075;-44
2021/11/15 07:24:11;;;;;;;56.85;31.35;;;;;;;7.21;74.61;101976.75;5001683;28;20417;-44
2021/11/15 07:26:37;;;;;;;55.47;30.85;;;;;;;7.22;74.12;101978.50;4998423;28;20088;-44
2021/11/15 07:29:11;;;;;;;54.67;30.73;;;;;;;7.21;74.46;101982.88;5006145;28;20052;-44
2021/11/15 07:31:39;;;;;;;50.47;29.77;;;;;;;7.21;74.27;101979.38;5003759;28;20037;-44
2021/11/15 07:34:04;;;;;;;54.55;30.67;;;;;;;7.19;74.56;101968.81;4999194;28;20466;-44
2021/11/15 07:36:36;;;;;;;51.97;30.55;;;;;;;7.22;74.48;101978.50;5008214;28;20021;-44
2021/11/15 07:39:03;;;;;;;55.35;30.17;;;;;;;7.22;74.73;101983.75;4995885;28;20034;-44
2021/11/15 07:41:28;;;;;;;53.97;30.85;;;;;;;7.22;74.31;101975.88;5010214;28;20034;-45
2021/11/15 07:43:53;;;;;;;53.85;30.25;;;;;;;7.21;74.50;101979.38;5002334;28;20544;-44
2021/11/15 07:46:19;;;;;;;54.83;29.92;;;;;;;7.20;74.23;101978.47;5005154;28;20057;-44
2021/11/15 07:48:44;;;;;;;49.70;30.33;;;;;;;7.21;74.35;101979.38;4998994;28;20030;-44
2021/11/15 07:51:25;;;;;;;53.88;30.08;;;;;;;7.20;74.68;101991.59;5000873;28;20080;-44
2021/11/15 07:53:51;;;;;;;52.75;30.85;;;;;;;7.18;74.65;101977.56;4986012;28;20022;-43
2021/11/15 07:56:17;;;;;;;53.50;31.25;;;;;;;7.19;74.29;101981.94;5007482;28;20040;-44
2021/11/15 07:58:42;;;;;;;55.92;30.52;;;;;;;7.19;74.35;101980.22;5004628;28;20113;-44
2021/11/15 08:01:07;;;;;;;54.53;30.60;;;;;;;7.19;74.65;101987.19;4999632;28;20108;-43
2021/11/15 08:03:41;;;;;;;52.60;30.30;;;;;;;7.17;74.62;101984.53;4998261;28;20034;-44
2021/11/15 08:06:10;;;;;;;53.03;31.33;;;;;;;7.20;74.38;101983.72;5001094;28;21871;-43
2021/11/15 08:08:38;;;;;;;53.90;30.10;;;;;;;7.18;74.50;101978.41;5000526;28;20489;-44
2021/11/15 08:11:04;;;;;;;51.90;30.50;;;;;;;7.19;74.37;101974.06;5000488;28;20037;-42
2021/11/15 08:13:30;;;;;;;51.97;28.85;;;;;;;7.19;74.39;101979.31;5001089;28;20500;-42
2021/11/15 08:15:55;;;;;;;51.88;29.30;;;;;;;7.19;74.48;101981.94;5001266;28;20080;-43
2021/11/15 08:18:20;;;;;;;53.83;30.65;;;;;;;7.18;74.51;101977.56;5002441;28;20030;-43
2021/11/15 08:20:46;;;;;;;51.25;30.88;;;;;;;7.17;74.46;101975.78;5004787;28;20026;-43
2021/11/15 08:23:14;;;;;;;51.08;30.73;;;;;;;7.17;74.20;101973.16;5005780;28;20024;-44
2021/11/15 08:25:50;;;;;;;54.05;29.48;;;;;;;7.17;74.36;101973.16;5002241;28;20022;-43
2021/11/15 08:28:19;;;;;;;51.45;30.33;;;;;;;7.18;74.58;101985.44;5001741;28;20056;-43
2021/11/15 08:30:45;;;;;;;47.75;29.80;;;;;;;7.17;74.40;101975.78;4997063;28;20105;-44
2021/11/15 08:33:12;;;;;;;59.35;30.45;;;;;;;7.18;74.46;101977.56;4998037;28;20125;-45
2021/11/15 08:35:37;;;;;;;48.42;27.67;;;;;;;7.15;74.34;101973.13;4998183;28;20359;-44
2021/11/15 08:38:29;;;;;;;49.38;28.27;;;;;;;7.17;74.21;101967.91;4989397;28;20088;-46
2021/11/15 08:40:54;;;;;;;;;;;;;;;7.13;74.36;101971.28;5001056;28;20042;-43
2021/11/15 08:43:22;;;;;;;47.93;29.77;;;;;;;7.15;74.64;101977.47;4993086;28;19960;-42
2021/11/15 08:45:48;;;;;;;49.25;28.20;;;;;;;7.15;74.56;101977.47;5021913;28;20348;-43
2021/11/15 08:48:14;;;;;;;47.78;29.08;;;;;;;7.15;74.55;101977.47;5001956;28;20547;-43
2021/11/15 08:50:48;;;;;;;58.53;32.55;;;;;;;7.09;74.29;101972.03;5000553;28;20025;-42
2021/11/15 08:53:14;;;;;;;62.38;32.45;;;;;;;7.05;74.77;101973.72;5003655;28;20520;-41
2021/11/15 08:55:40;;;;;;;60.50;34.10;;;;;;;7.00;75.08;101967.47;5005061;28;20025;-44
2021/11/15 08:58:16;;;;;;;85.05;34.72;;;;;;;6.99;75.05;101966.56;5092633;27;20799;-45
2021/11/15 09:00:45;;;;;;;61.15;32.45;;;;;;;6.99;75.22;101971.81;5086174;28;21695;-46
2021/11/15 09:03:11;;;;;;;61.95;34.40;;;;;;;7.00;75.00;101973.59;5088563;28;20039;-45
2021/11/15 09:05:36;;;;;;;62.80;34.28;;;;;;;6.99;75.37;101971.81;5085691;28;20032;-47
2021/11/15 09:08:01;;;;;;;65.68;34.60;;;;;;;6.99;75.29;101971.81;5085441;28;20039;-42
2021/11/15 09:10:30;;;;;;;64.20;34.72;;;;;;;6.90;75.53;101974.19;5081518;28;20070;-39
2021/11/15 09:12:55;;;;;;;57.53;33.50;;;;;;;6.88;75.39;101973.25;5083430;28;20044;-45
2021/11/15 09:15:23;;;;;;;62.13;34.35;;;;;;;6.89;75.27;101969.78;5086290;28;20394;-39
2021/11/15 09:17:48;;;;;;;57.20;33.13;;;;;;;7.01;75.30;101974.47;5080737;28;20031;-39
2021/11/15 09:20:17;;;;;;;68.15;34.78;;;;;;;6.95;74.99;101985.69;5085431;28;20036;-39
2021/11/15 09:22:42;;;;;;;57.25;32.88;;;;;;;6.96;74.80;101982.22;5088944;28;20054;-40
2021/11/15 09:25:09;;;;;;;61.95;33.53;;;;;;;6.95;75.24;101979.56;5083985;28;20024;-42
2021/11/15 09:27:36;;;;;;;64.97;33.67;;;;;;;6.93;74.68;101977.78;5083001;28;20020;-41
2021/11/15 09:30:03;;;;;;;59.38;32.45;;;;;;;6.93;74.85;101982.13;5085056;28;20402;-42
2021/11/15 09:32:29;;;;;;;62.35;33.33;;;;;;;6.99;74.42;101979.69;5082315;28;20103;-42
2021/11/15 09:34:54;;;;;;;52.88;30.45;;;;;;;6.96;74.51;101976.06;5086468;28;20515;-41
2021/11/15 09:37:20;;;;;;;56.05;31.80;;;;;;;7.03;74.48;101978.91;5082029;28;20040;-48
2021/11/15 09:39:57;;;;;;;56.92;29.83;;;;;;;7.06;74.18;101979.00;5072482;28;20055;-40
2021/11/15 09:42:22;;;;;;;52.95;31.10;;;;;;;7.01;74.33;101979.72;5085284;28;20028;-48
2021/11/15 09:44:48;;;;;;;56.42;31.52;;;;;;;7.05;74.44;101974.63;5083430;28;20028;-43
2021/11/15 09:47:13;;;;;;;61.40;30.17;;;;;;;7.06;74.33;101973.75;5086434;28;20076;-42
2021/11/15 09:53:47;;;;;;;62.40;32.08;;;;;;;7.14;74.29;101978.31;5043449;28;20060;-94
2021/11/15 09:56:14;;;;;;;67.82;30.35;;;;;;;7.15;74.42;101978.38;5038987;28;20403;-92
2021/11/15 09:58:40;;;;;;;62.30;31.42;;;;;;;7.10;73.93;101966.84;5035073;28;20029;-93
2021/11/15 10:01:06;;;;;;;52.70;29.98;;;;;;;7.12;74.15;101966.88;5036767;28;20056;-93
2021/11/15 10:03:34;;;;;;;57.75;28.40;;;;;;;7.17;74.27;101975.78;5037015;28;20040;-94
2021/11/15 10:06:00;;;;;;;51.42;27.73;;;;;;;7.21;74.07;101995.09;5058873;28;20120;-94
2021/11/15 10:08:26;;;;;;;52.72;29.60;;;;;;;7.10;74.13;101968.59;5049032;28;20013;-93
2021/11/15 10:10:56;;;;;;;59.58;28.23;;;;;;;7.20;74.35;101983.72;5027900;28;20056;-93
2021/11/15 10:13:26;;;;;;;48.55;28.05;;;;;;;7.19;74.17;101974.06;5026760;28;20025;-94
2021/11/15 10:15:55;;;;;;;49.88;28.23;;;;;;;7.14;74.17;101970.44;5039932;28;20284;-94
2021/11/15 10:18:32;;;;;;;55.65;28.08;;;;;;;7.17;74.14;101965.28;5027539;28;20025;-94
2021/11/15 10:20:59;;;;;;;45.55;26.73;;;;;;;7.17;74.16;101970.53;5041243;28;20029;-94
2021/11/15 10:23:31;;;;;;;46.97;27.70;;;;;;;7.14;74.01;101959.97;5028054;28;20025;-94
2021/11/15 10:26:01;;;;;;;49.65;27.38;;;;;;;7.14;74.22;101966.06;5025018;28;20402;-93
2021/11/15 10:28:29;;;;;;;41.92;24.90;;;;;;;7.18;74.02;101978.41;5029562;28;20022;-93
2021/11/15 10:30:54;;;;;;;47.85;26.33;;;;;;;7.10;74.26;101961.59;5026903;28;20456;-93
2021/11/15 10:33:19;;;;;;;43.75;25.83;;;;;;;7.14;74.04;101970.44;5058816;28;20052;-93
2021/11/15 10:35:49;;;;;;;43.78;26.55;;;;;;;7.10;74.32;101960.72;5026192;28;20120;-93
2021/11/15 10:38:15;;;;;;;43.85;26.30;;;;;;;7.16;74.19;101977.50;5025083;28;20025;-93
2021/11/15 10:40:41;;;;;;;46.25;25.50;;;;;;;7.17;74.07;101970.53;5022928;28;20025;-94
2021/11/15 10:43:10;;;;;;;43.30;25.45;;;;;;;7.11;74.44;101959.88;5018952;28;20025;-94
2021/11/15 10:45:38;;;;;;;39.40;24.35;;;;;;;7.14;73.93;101965.22;5022700;28;20494;-93
2021/11/15 10:48:12;;;;;;;37.00;23.65;;;;;;;7.16;74.11;101963.50;5006673;28;20025;-94
2021/11/15 10:50:55;;;;;;;43.50;24.27;;;;;;;7.09;74.08;101951.97;5022719;28;20025;-94
2021/11/15 10:53:32;;;;;;;40.03;25.13;;;;;;;7.12;73.94;101953.78;5026240;28;20025;-93
2021/11/15 10:56:35;;;;;;;39.38;24.70;;;;;;;7.09;73.96;101943.19;5021653;28;20040;-93
2021/11/15 10:59:01;;;;;;;40.65;24.40;;;;;;;7.13;74.12;101950.28;5047800;28;20037;-92
2021/11/15 11:01:31;;;;;;;43.60;26.33;;;;;;;7.14;74.17;101954.72;5036995;28;20028;-93
2021/11/15 11:04:13;;;;;;;39.80;23.80;;;;;;;7.09;73.95;101940.56;5029132;28;20479;-94
2021/11/15 11:07:04;;;;;;;42.25;24.42;;;;;;;7.10;74.19;101942.38;5024298;28;20025;-93
2021/11/15 11:09:37;;;;;;;42.83;25.45;;;;;;;7.11;74.50;101946.75;5022992;28;20040;-93
2021/11/15 11:12:14;;;;;;;40.95;23.48;;;;;;;7.02;73.99;101921.16;5027619;28;20037;-93
2021/11/15 11:14:40;;;;;;;38.15;22.45;;;;;;;7.03;74.10;101923.81;5023730;28;20049;-93
2021/11/15 11:17:06;;;;;;;39.00;23.17;;;;;;;7.09;74.45;101930.97;5027213;28;20030;-93
2021/11/15 11:19:43;;;;;;;39.03;24.25;;;;;;;7.01;74.22;101922.03;5019536;28;20045;-93
2021/11/15 11:22:37;;;;;;;36.28;24.27;;;;;;;7.04;74.15;101927.34;5023966;28;20018;-94
2021/11/15 11:27:31;;;;;;;41.00;24.33;;;;;;;7.06;74.37;101936.13;5030897;28;20025;-93